.
WxDataArchive / Data Records for 2008-02-09
2008-02-08 February 2008 2008-02-10

Data Records for Saturday, 09 February 2008

Time	Temp	Chill	HIndex	Humid	Dewpt	 Wind 	HiWind	WindDir	Rain 	Barom 
-----	----	-----	------	-----	-----	------	------	-------	-----	----- 
00:00	35.2	35.2	35.2	85	31.2	2	5	248	0.00	29.802 
00:05	36.5	36.5	36.5	81	31.2	3	7	248	0.00	29.801 
00:10	37.3	37.3	37.3	78	31.1	3	10	270	0.00	29.800 
00:15	37.5	37.5	37.5	77	31.0	2	6	248	0.00	29.797 
00:20	37.6	37.6	37.6	79	31.7	3	7	248	0.00	29.794 
00:25	37.3	37.3	37.3	81	32.0	2	9	248	0.00	29.789 
00:30	37.0	37.0	37.0	82	32.0	2	7	248	0.01	29.788 
00:35	36.8	36.8	36.8	83	32.1	2	5	248	0.00	29.786 
00:40	36.6	36.6	36.6	84	32.2	2	4	248	0.00	29.785 
00:45	36.5	36.5	36.5	85	32.4	1	4	248	0.00	29.783 
00:50	36.2	36.2	36.2	86	32.4	2	5	248	0.00	29.781 
00:55	36.0	36.0	36.0	86	32.2	1	3	225	0.00	29.775 
01:00	35.9	35.9	35.9	87	32.4	1	4	248	0.00	29.772 
01:05	35.8	35.8	35.8	88	32.6	0	4	248	0.01	29.770 
01:10	35.6	35.6	35.6	88	32.4	0	2	248	0.00	29.769 
01:15	35.5	35.5	35.5	89	32.6	0	1	248	0.00	29.766 
01:20	35.3	35.3	35.3	89	32.4	0	1	248	0.00	29.765 
01:25	35.2	35.2	35.2	90	32.6	1	4	270	0.00	29.764 
01:30	35.0	35.0	35.0	90	32.4	0	2	112	0.00	29.761 
01:35	35.0	35.0	35.0	90	32.4	0	2	180	0.00	29.758 
01:40	34.9	34.9	34.9	91	32.5	1	2	112	0.00	29.756 
01:45	34.9	34.9	34.9	91	32.5	0	2	112	0.00	29.756 
01:50	34.7	34.7	34.7	91	32.3	0	2	112	0.01	29.755 
01:55	34.4	34.4	34.4	91	32.0	1	3	292	0.00	29.754 
02:00	34.3	34.3	34.3	92	32.2	0	1	292	0.00	29.756 
02:05	34.1	34.1	34.1	92	32.0	0	2	292	0.01	29.755 
02:10	33.8	33.8	33.8	92	31.7	0	2	292	0.00	29.754 
02:15	33.7	33.7	33.7	92	31.6	0	2	292	0.00	29.755 
02:20	33.5	33.5	33.5	92	31.4	0	2	292	0.00	29.754 
02:25	33.4	33.4	33.4	93	31.6	0	1	292	0.00	29.753 
02:30	33.2	33.2	33.2	93	31.4	1	3	248	0.00	29.752 
02:35	33.2	33.2	33.2	93	31.4	1	2	180	0.00	29.750 
02:40	33.1	33.1	33.1	93	31.3	1	3	90	0.00	29.750 
02:45	33.1	33.1	33.1	94	31.6	0	0	---	0.00	29.746 
02:50	33.1	33.1	33.1	94	31.6	0	1	90	0.00	29.739 
02:55	33.1	33.1	33.1	94	31.6	0	1	90	0.01	29.736 
03:00	33.1	33.1	33.1	94	31.6	0	2	90	0.00	29.732 
03:05	33.2	33.2	33.2	94	31.7	0	1	90	0.00	29.729 
03:10	33.2	33.2	33.2	94	31.7	0	1	90	0.00	29.726 
03:15	33.2	33.2	33.2	94	31.7	0	1	90	0.00	29.728 
03:20	33.4	33.4	33.4	95	32.1	0	1	90	0.00	29.729 
03:25	33.5	33.5	33.5	95	32.2	0	2	112	0.00	29.725 
03:30	33.7	33.7	33.7	95	32.4	0	1	112	0.00	29.723 
03:35	33.7	33.7	33.7	95	32.4	0	1	112	0.00	29.721 
03:40	33.7	33.7	33.7	95	32.4	0	1	112	0.01	29.721 
03:45	33.7	33.7	33.7	95	32.4	0	2	112	0.00	29.716 
03:50	33.8	33.8	33.8	95	32.5	0	2	112	0.00	29.709 
03:55	34.0	34.0	34.0	95	32.7	0	1	112	0.00	29.706 
04:00	34.1	34.1	34.1	95	32.8	0	1	112	0.00	29.706 
04:05	34.3	34.3	34.3	95	33.0	0	2	112	0.00	29.704 
04:10	34.4	34.4	34.4	95	33.1	1	3	112	0.00	29.700 
04:15	34.4	34.4	34.4	95	33.1	1	2	112	0.00	29.696 
04:20	34.6	34.6	34.6	95	33.3	0	2	112	0.00	29.692 
04:25	34.6	34.6	34.6	95	33.3	0	2	112	0.00	29.690 
04:30	34.6	34.6	34.6	95	33.3	0	2	112	0.00	29.689 
04:35	34.6	34.6	34.6	95	33.3	0	1	112	0.01	29.690 
04:40	34.6	34.6	34.6	95	33.3	0	2	112	0.00	29.689 
04:45	34.6	34.6	34.6	95	33.3	0	2	112	0.00	29.689 
04:50	34.6	34.6	34.6	95	33.3	0	2	112	0.00	29.689 
04:55	34.7	34.7	34.7	95	33.4	1	4	112	0.00	29.689 
05:00	34.9	34.9	34.9	95	33.6	1	5	90	0.00	29.687 
05:05	35.0	35.0	35.0	94	33.5	0	2	90	0.00	29.688 
05:10	35.0	35.0	35.0	94	33.5	0	3	90	0.00	29.687 
05:15	35.0	35.0	35.0	94	33.5	0	3	68	0.00	29.683 
05:20	35.2	35.2	35.2	94	33.6	0	2	68	0.00	29.685 
05:25	35.2	35.2	35.2	94	33.6	0	3	292	0.00	29.686 
05:30	35.2	35.2	35.2	94	33.6	0	2	270	0.00	29.684 
05:35	35.2	35.2	35.2	94	33.6	0	1	45	0.00	29.683 
05:40	35.0	35.0	35.0	94	33.5	0	1	45	0.00	29.679 
05:45	35.0	35.0	35.0	94	33.5	0	2	45	0.00	29.678 
05:50	35.0	35.0	35.0	93	33.2	0	2	0	0.00	29.678 
05:55	35.0	35.0	35.0	94	33.5	0	2	202	0.01	29.677 
06:00	35.2	35.2	35.2	94	33.6	0	2	248	0.00	29.675 
06:05	35.2	35.2	35.2	94	33.6	0	3	248	0.00	29.679 
06:10	35.2	35.2	35.2	94	33.6	0	3	248	0.00	29.679 
06:15	35.2	35.2	35.2	94	33.6	1	4	248	0.00	29.677 
06:20	35.2	35.2	35.2	93	33.4	0	2	248	0.00	29.678 
06:25	35.2	35.2	35.2	93	33.4	0	2	248	0.00	29.678 
06:30	35.2	35.2	35.2	93	33.4	1	4	248	0.00	29.677 
06:35	35.2	35.2	35.2	93	33.4	1	6	248	0.00	29.677 
06:40	35.3	35.3	35.3	93	33.5	1	4	248	0.00	29.676 
06:45	35.3	35.3	35.3	93	33.5	1	3	248	0.00	29.675 
06:50	35.3	35.3	35.3	93	33.5	1	3	248	0.00	29.675 
06:55	35.3	35.3	35.3	93	33.5	1	4	248	0.00	29.676 
07:00	35.5	35.5	35.5	93	33.7	1	3	270	0.00	29.674 
07:05	35.5	35.5	35.5	93	33.7	1	5	248	0.00	29.677 
07:10	35.5	35.5	35.5	93	33.7	1	3	248	0.00	29.676 
07:15	35.5	35.5	35.5	93	33.7	1	4	248	0.00	29.675 
07:20	35.5	35.5	35.5	93	33.7	1	3	248	0.00	29.674 
07:25	35.6	35.6	35.6	92	33.5	1	3	225	0.00	29.669 
07:30	35.6	35.6	35.6	92	33.5	1	2	270	0.00	29.664 
07:35	35.6	35.6	35.6	92	33.5	1	3	270	0.00	29.663 
07:40	35.6	35.6	35.6	92	33.5	1	3	248	0.00	29.663 
07:45	35.6	35.6	35.6	92	33.5	1	3	270	0.00	29.663 
07:50	35.8	35.8	35.8	92	33.7	0	2	292	0.00	29.662 
07:55	35.8	35.8	35.8	92	33.7	1	3	248	0.00	29.661 
08:00	35.8	35.8	35.8	92	33.7	1	3	248	0.00	29.661 
08:05	35.9	35.9	35.9	92	33.8	2	5	248	0.00	29.662 
08:10	36.0	36.0	36.0	91	33.6	2	5	248	0.00	29.662 
08:15	36.0	36.0	36.0	91	33.6	1	4	270	0.00	29.661 
08:20	36.2	36.2	36.2	91	33.8	2	4	248	0.00	29.662 
08:25	36.3	36.3	36.3	91	33.9	2	6	248	0.00	29.663 
08:30	36.5	36.5	36.5	90	33.9	2	5	248	0.00	29.661 
08:35	36.5	36.5	36.5	90	33.9	2	9	248	0.00	29.662 
08:40	36.6	33.4	36.6	89	33.7	4	9	248	0.00	29.665 
08:45	36.8	36.8	36.8	88	33.6	3	9	248	0.00	29.664 
08:50	36.8	33.6	36.8	87	33.3	4	11	248	0.00	29.666 
08:55	36.9	32.8	36.9	86	33.1	5	14	248	0.00	29.666 
09:00	37.0	33.9	37.0	85	32.9	4	9	248	0.00	29.667 
09:05	37.2	34.1	37.2	84	32.8	4	13	248	0.00	29.669 
09:10	37.0	33.9	37.0	83	32.3	4	16	270	0.00	29.675 
09:15	36.8	36.8	36.8	82	31.8	2	8	225	0.00	29.674 
09:20	36.2	36.2	36.2	81	30.9	3	9	270	0.00	29.676 
09:25	35.5	31.2	35.5	78	29.3	5	12	270	0.00	29.676 
09:30	35.2	30.8	35.2	77	28.7	5	12	270	0.00	29.681 
09:35	35.3	31.9	35.3	78	29.1	4	12	270	0.00	29.685 
09:40	35.2	30.8	35.2	78	29.0	5	10	270	0.00	29.683 
09:45	35.0	29.8	35.0	77	28.5	6	12	270	0.00	29.686 
09:50	34.9	30.5	34.9	75	27.8	5	12	270	0.00	29.687 
09:55	34.7	30.2	34.7	75	27.6	5	18	270	0.00	29.692 
10:00	34.4	29.1	34.4	76	27.6	6	17	270	0.00	29.694 
10:05	34.3	30.7	34.3	77	27.9	4	11	270	0.00	29.694 
10:10	34.1	30.5	34.1	77	27.7	4	13	270	0.00	29.694 
10:15	33.8	29.2	33.8	77	27.4	5	15	270	0.00	29.696 
10:20	33.7	30.0	33.7	77	27.3	4	12	270	0.00	29.698 
10:25	33.5	29.8	33.5	78	27.4	4	10	270	0.00	29.700 
10:30	33.4	33.4	33.4	79	27.6	3	6	270	0.00	29.705 
10:35	33.4	33.4	33.4	80	27.9	3	9	248	0.00	29.709 
10:40	33.2	33.2	33.2	80	27.7	3	13	270	0.00	29.708 
10:45	33.2	28.5	33.2	79	27.4	5	12	270	0.00	29.707 
10:50	33.2	28.5	33.2	78	27.1	5	10	270	0.00	29.709 
10:55	33.2	29.5	33.2	78	27.1	4	11	270	0.00	29.709 
11:00	33.4	29.7	33.4	78	27.3	4	12	248	0.00	29.709 
11:05	33.4	29.7	33.4	77	27.0	4	10	270	0.00	29.709 
11:10	33.5	33.5	33.5	77	27.1	2	5	270	0.00	29.710 
11:15	33.4	29.7	33.4	77	27.0	4	10	270	0.00	29.713 
11:20	33.2	33.2	33.2	78	27.1	3	10	270	0.00	29.715 
11:25	33.1	29.3	33.1	78	27.0	4	10	270	0.00	29.722 
11:30	32.9	29.1	32.9	78	26.8	4	10	270	0.00	29.725 
11:35	32.9	29.1	32.9	78	26.8	4	7	270	0.00	29.725 
11:40	32.9	28.1	32.9	76	26.2	5	18	270	0.00	29.724 
11:45	33.1	28.4	33.1	75	26.1	5	14	270	0.00	29.725 
11:50	33.1	29.3	33.1	76	26.4	4	12	270	0.00	29.725 
11:55	32.9	28.1	32.9	76	26.2	5	10	270	0.00	29.725 
12:00	32.8	28.0	32.8	77	26.4	5	12	270	0.00	29.724 
12:05	32.8	28.0	32.8	76	26.1	5	12	270	0.00	29.726 
12:10	32.7	27.9	32.7	75	25.7	5	17	270	0.00	29.728 
12:15	32.7	27.1	32.7	75	25.7	6	13	270	0.00	29.728 
12:20	32.5	26.8	32.5	74	25.2	6	15	270	0.00	29.732 
12:25	32.4	27.5	32.4	76	25.7	5	13	270	0.00	29.734 
12:30	32.1	27.2	32.1	76	25.4	5	12	270	0.00	29.731 
12:35	32.1	27.2	32.1	74	24.8	5	11	270	0.00	29.734 
12:40	32.4	28.5	32.4	74	25.1	4	11	270	0.00	29.735 
12:45	32.2	28.3	32.2	73	24.5	4	15	270	0.00	29.736 
12:50	32.1	28.2	32.1	73	24.4	4	9	270	0.00	29.733 
12:55	31.9	27.0	31.9	73	24.2	5	12	270	0.00	29.732 
13:00	31.8	26.8	31.8	74	24.5	5	13	270	0.00	29.734 
13:05	31.6	26.6	31.6	74	24.3	5	13	270	0.00	29.737 
13:10	31.6	26.6	31.6	75	24.6	5	13	270	0.00	29.736 
13:15	31.6	31.6	31.6	76	24.9	3	11	270	0.00	29.742 
13:20	31.8	26.8	31.8	74	24.5	5	14	270	0.00	29.744 
13:25	32.1	28.2	32.1	75	25.1	4	14	270	0.00	29.744 
13:30	31.9	27.0	31.9	71	23.6	5	13	270	0.00	29.747 
13:35	31.9	27.0	31.9	72	23.9	5	11	270	0.00	29.753 
13:40	31.9	28.0	31.9	73	24.2	4	14	270	0.00	29.751 
13:45	31.9	27.0	31.9	72	23.9	5	11	270	0.00	29.755 
13:50	31.9	26.1	31.9	71	23.6	6	15	270	0.00	29.756 
13:55	31.9	27.0	31.9	72	23.9	5	17	270	0.00	29.758 
14:00	31.9	31.9	31.9	72	23.9	3	9	270	0.00	29.759 
14:05	31.8	27.8	31.8	73	24.1	4	9	270	0.00	29.760 
14:10	31.8	31.8	31.8	73	24.1	3	7	270	0.00	29.759 
14:15	31.9	28.0	31.9	73	24.2	4	12	270	0.00	29.760 
14:20	31.9	31.9	31.9	74	24.6	3	11	248	0.00	29.762 
14:25	31.8	26.8	31.8	73	24.1	5	11	270	0.00	29.762 
14:30	31.8	26.8	31.8	72	23.8	5	12	270	0.00	29.766 
14:35	31.8	27.8	31.8	73	24.1	4	13	270	0.00	29.768 
14:40	32.1	28.2	32.1	73	24.4	4	11	270	0.00	29.771 
14:45	32.2	28.3	32.2	71	23.9	4	10	270	0.00	29.769 
14:50	32.2	27.3	32.2	71	23.9	5	12	270	0.00	29.772 
14:55	32.1	28.2	32.1	72	24.1	4	12	270	0.00	29.774 
15:00	32.1	28.2	32.1	73	24.4	4	12	270	0.00	29.775 
15:05	32.2	28.3	32.2	74	24.9	4	10	270	0.00	29.774 
15:10	32.1	28.2	32.1	74	24.8	4	14	270	0.00	29.775 
15:15	32.1	32.1	32.1	74	24.8	3	10	270	0.00	29.774 
15:20	32.1	28.2	32.1	74	24.8	4	11	270	0.00	29.775 
15:25	32.2	32.2	32.2	75	25.2	3	7	248	0.00	29.777 
15:30	32.5	32.5	32.5	76	25.8	3	6	248	0.00	29.778 
15:35	32.5	27.7	32.5	73	24.8	5	11	270	0.00	29.779 
15:40	32.8	29.0	32.8	72	24.8	4	12	270	0.00	29.779 
15:45	32.9	28.1	32.9	71	24.5	5	15	270	0.00	29.783 
15:50	32.9	28.1	32.9	72	24.9	5	14	270	0.00	29.784 
15:55	33.2	27.7	33.2	71	24.8	6	13	270	0.00	29.786 
16:00	33.2	29.5	33.2	73	25.5	4	7	270	0.00	29.785 
16:05	33.7	33.7	33.7	73	26.0	3	10	270	0.00	29.783 
16:10	34.0	34.0	34.0	73	26.3	2	4	270	0.00	29.785 
16:15	33.8	33.8	33.8	72	25.7	3	9	270	0.00	29.788 
16:20	34.0	34.0	34.0	72	25.9	3	10	270	0.00	29.787 
16:25	34.3	34.3	34.3	72	26.2	3	10	270	0.00	29.787 
16:30	34.4	30.8	34.4	71	26.0	4	12	248	0.00	29.787 
16:35	34.6	34.6	34.6	72	26.5	3	10	270	0.00	29.782 
16:40	34.7	34.7	34.7	72	26.6	3	6	270	0.00	29.783 
16:45	34.7	34.7	34.7	72	26.6	3	6	270	0.00	29.786 
16:50	34.9	31.4	34.9	71	26.5	4	11	270	0.00	29.786 
16:55	34.9	31.4	34.9	72	26.8	4	10	248	0.00	29.786 
17:00	35.0	30.6	35.0	72	26.9	5	11	248	0.00	29.784 
17:05	35.2	31.8	35.2	73	27.4	4	10	270	0.00	29.785 
17:10	35.2	31.8	35.2	73	27.4	4	13	270	0.00	29.783 
17:15	35.3	35.3	35.3	73	27.5	3	9	248	0.00	29.783 
17:20	35.3	35.3	35.3	73	27.5	3	6	270	0.00	29.783 
17:25	35.3	35.3	35.3	73	27.5	3	7	248	0.00	29.783 
17:30	35.3	35.3	35.3	73	27.5	3	7	248	0.00	29.783 
17:35	35.3	31.9	35.3	73	27.5	4	11	248	0.00	29.785 
17:40	35.3	35.3	35.3	74	27.9	2	10	248	0.00	29.786 
17:45	35.3	35.3	35.3	74	27.9	2	8	248	0.00	29.786 
17:50	35.3	35.3	35.3	74	27.9	2	6	248	0.00	29.786 
17:55	35.3	35.3	35.3	74	27.9	2	7	248	0.00	29.787 
18:00	35.3	35.3	35.3	74	27.9	3	7	248	0.00	29.786 
18:05	35.2	35.2	35.2	74	27.8	2	6	248	0.00	29.786 
18:10	35.2	35.2	35.2	74	27.8	3	7	248	0.00	29.786 
18:15	35.3	35.3	35.3	73	27.5	2	5	248	0.00	29.784 
18:20	35.3	35.3	35.3	73	27.5	2	6	248	0.00	29.781 
18:25	35.3	35.3	35.3	73	27.5	2	5	248	0.00	29.783 
18:30	35.5	35.5	35.5	73	27.7	3	9	270	0.00	29.782 
18:35	35.5	35.5	35.5	72	27.4	3	6	248	0.00	29.781 
18:40	35.5	35.5	35.5	72	27.4	2	6	248	0.00	29.779 
18:45	35.6	35.6	35.6	72	27.5	3	10	248	0.00	29.780 
18:50	35.8	35.8	35.8	72	27.7	3	6	248	0.00	29.784 
18:55	35.8	35.8	35.8	72	27.7	2	5	248	0.00	29.784 
19:00	35.9	35.9	35.9	72	27.8	2	7	248	0.00	29.784 
19:05	36.0	36.0	36.0	72	27.9	3	7	248	0.00	29.783 
19:10	36.2	36.2	36.2	72	28.1	3	8	248	0.00	29.783 
19:15	36.3	36.3	36.3	71	27.8	2	6	248	0.00	29.783 
19:20	36.3	36.3	36.3	71	27.8	1	4	248	0.00	29.783 
19:25	36.3	36.3	36.3	71	27.8	1	5	248	0.00	29.781 
19:30	36.5	36.5	36.5	71	28.0	2	6	248	0.00	29.779 
19:35	36.5	36.5	36.5	71	28.0	1	4	248	0.00	29.781 
19:40	36.6	36.6	36.6	71	28.1	2	6	248	0.00	29.783 
19:45	36.6	36.6	36.6	71	28.1	1	4	248	0.00	29.781 
19:50	36.6	36.6	36.6	73	28.8	2	5	270	0.00	29.778 
19:55	36.5	36.5	36.5	73	28.7	2	5	248	0.00	29.774 
20:00	36.5	36.5	36.5	75	29.3	2	6	248	0.00	29.770 
20:05	36.3	36.3	36.3	76	29.5	0	4	248	0.00	29.766 
20:10	36.2	36.2	36.2	77	29.7	1	2	248	0.00	29.762 
20:15	36.2	36.2	36.2	78	30.0	1	3	248	0.00	29.758 
20:20	36.2	36.2	36.2	78	30.0	1	5	248	0.00	29.762 
20:25	35.9	35.9	35.9	80	30.3	1	4	248	0.00	29.760 
20:30	35.2	35.2	35.2	83	30.6	1	5	248	0.00	29.754 
20:35	34.9	34.9	34.9	85	30.9	1	2	270	0.01	29.751 
20:40	34.7	34.7	34.7	86	30.9	0	2	270	0.00	29.740 
20:45	34.6	34.6	34.6	87	31.1	1	3	248	0.00	29.740 
20:50	34.7	34.7	34.7	87	31.2	0	3	248	0.00	29.739 
20:55	34.9	34.9	34.9	88	31.7	0	4	248	0.00	29.737 
21:00	35.0	35.0	35.0	88	31.8	1	3	248	0.00	29.735 
21:05	35.2	35.2	35.2	88	32.0	1	2	248	0.00	29.738 
21:10	35.3	35.3	35.3	88	32.1	1	6	248	0.00	29.737 
21:15	35.8	35.8	35.8	88	32.6	3	7	248	0.00	29.733 
21:20	36.3	36.3	36.3	87	32.8	2	6	248	0.00	29.735 
21:25	36.5	36.5	36.5	86	32.7	1	4	248	0.00	29.732 
21:30	36.5	36.5	36.5	85	32.4	2	4	248	0.00	29.730 
21:35	36.5	36.5	36.5	85	32.4	2	6	270	0.00	29.733 
21:40	36.6	36.6	36.6	85	32.5	2	5	270	0.01	29.731 
21:45	36.5	36.5	36.5	85	32.4	2	4	248	0.00	29.731 
21:50	36.5	33.3	36.5	84	32.1	4	10	270	0.00	29.736 
21:55	36.6	31.7	36.6	82	31.6	6	12	270	0.00	29.738 
22:00	36.6	31.7	36.6	80	31.0	6	21	270	0.00	29.745 
22:05	35.6	31.3	35.6	77	29.1	5	14	270	0.00	29.751 
22:10	34.7	28.8	34.7	76	27.9	7	14	270	0.00	29.757 
22:15	33.7	26.9	33.7	76	27.0	8	12	270	0.00	29.767 
22:20	32.9	28.1	32.9	78	26.8	5	10	270	0.00	29.775 
22:25	32.2	27.3	32.2	79	26.4	5	19	270	0.00	29.779 
22:30	31.8	26.0	31.8	79	26.0	6	14	270	0.00	29.785 
22:35	31.5	25.6	31.5	80	26.1	6	18	270	0.00	29.788 
22:40	31.2	24.5	31.2	80	25.8	7	14	270	0.00	29.789 
22:45	30.9	25.8	30.9	80	25.5	5	13	270	0.00	29.782 
22:50	30.9	26.8	30.9	81	25.8	4	7	292	0.00	29.781 
22:55	30.7	25.5	30.7	80	25.3	5	11	270	0.00	29.794 
23:00	30.7	25.5	30.7	79	25.0	5	10	270	0.00	29.805 
23:05	30.9	26.8	30.9	78	24.9	4	9	270	0.00	29.809 
23:10	30.7	26.6	30.7	76	24.0	4	9	270	0.00	29.815 
23:15	30.6	25.4	30.6	74	23.3	5	9	270	0.00	29.822 
23:20	30.4	25.2	30.4	74	23.1	5	11	270	0.00	29.828 
23:25	30.3	25.1	30.3	73	22.7	5	14	270	0.00	29.833 
23:30	30.3	25.1	30.3	74	23.0	5	11	270	0.00	29.839 
23:35	30.3	26.1	30.3	74	23.0	4	12	270	0.00	29.842 
23:40	30.3	26.1	30.3	74	23.0	4	9	270	0.00	29.843 
23:45	30.3	26.1	30.3	73	22.7	4	9	270	0.00	29.842 
23:50	30.3	26.1	30.3	73	22.7	4	9	270	0.00	29.840 
23:55	30.3	30.3	30.3	73	22.7	3	7	292	0.00	29.835 

CoCoRaHS
IN-AL-39
A2 Web Hosting
Creative Commons License
GoDaddy
Look for:

loaded 2017-12-13 02:48:36 • last modified 2010-11-18 10:43:29
Privacy PolicyDisclaimer
• wx.awcolley.com is powered by PmWiki v.2002016 •
• all content (unless otherwise noted) © 2017 A W Colley